Time;durP1;ratioP1;P1;durP2;ratioP2;P2;SDS_P1;SDS_P2;PMS_P1;PMS_P2;Temp;Humidity;BMP_temperature;BMP_pressure;BME280_temperature;BME280_humidity;BME280_pressure;Samples;Min_cycle;Max_cycle;Signal;HPM_P1;HPM_P2
2022/07/05 00:00:44;;;;;;;4.40;1.27;;;;;;;;;;4970094;28;20796;-66
2022/07/05 00:03:10;;;;;;;4.25;1.80;;;;;;;;;;4969912;28;20046;-65
2022/07/05 00:05:36;;;;;;;7.10;1.45;;;;;;;;;;4970108;28;20080;-67
2022/07/05 00:08:04;;;;;;;6.72;1.45;;;;;;;;;;4968844;28;20877;-68
2022/07/05 00:10:32;;;;;;;6.72;1.40;;;;;;;;;;4969993;28;20030;-67
2022/07/05 00:12:58;;;;;;;3.10;1.35;;;;;;;;;;4984504;28;20056;-67
2022/07/05 00:15:23;;;;;;;3.38;1.40;;;;;;;;;;4970051;28;20821;-68
2022/07/05 00:17:48;;;;;;;2.55;1.45;;;;;;;;;;4970614;28;21019;-67
2022/07/05 00:20:16;;;;;;;3.90;1.50;;;;;;;;;;4971275;28;20041;-67
2022/07/05 00:22:42;;;;;;;5.88;1.40;;;;;;;;;;4976260;28;20033;-66
2022/07/05 00:25:07;;;;;;;6.30;1.27;;;;;;;;;;4969519;28;20034;-65
2022/07/05 00:27:33;;;;;;;7.30;1.52;;;;;;;;;;4976679;28;20033;-67
2022/07/05 00:30:00;;;;;;;2.88;1.45;;;;;;;;;;4970052;28;20038;-67
2022/07/05 00:32:26;;;;;;;4.47;1.30;;;;;;;;;;4984751;28;20041;-67
2022/07/05 00:34:51;;;;;;;5.45;1.52;;;;;;;;;;4974291;28;20724;-68
2022/07/05 00:37:18;;;;;;;7.82;1.55;;;;;;;;;;4968929;28;20910;-67
2022/07/05 00:39:44;;;;;;;4.45;1.52;;;;;;;;;;4969448;28;20042;-67
2022/07/05 00:42:09;;;;;;;5.13;1.50;;;;;;;;;;4969235;28;20555;-66
2022/07/05 00:44:38;;;;;;;3.75;1.42;;;;;;;;;;4970153;28;20084;-67
2022/07/05 00:47:06;;;;;;;4.38;1.42;;;;;;;;;;4966205;28;20044;-67
2022/07/05 00:49:32;;;;;;;6.90;1.88;;;;;;;;;;4969688;28;20956;-67
2022/07/05 00:52:01;;;;;;;4.63;1.40;;;;;;;;;;4969158;28;20080;-68
2022/07/05 00:54:27;;;;;;;2.03;1.27;;;;;;;;;;4968745;28;20786;-67
2022/07/05 00:56:52;;;;;;;5.80;1.30;;;;;;;;;;4972490;28;20045;-67
2022/07/05 00:59:18;;;;;;;4.45;1.33;;;;;;;;;;4976944;28;20033;-67
2022/07/05 01:01:43;;;;;;;5.07;1.45;;;;;;;;;;5006767;28;20112;-67
2022/07/05 01:04:10;;;;;;;6.55;1.42;;;;;;;;;;4992089;28;20033;-67
2022/07/05 01:06:35;;;;;;;7.30;1.70;;;;;;;;;;4991269;28;20048;-68
2022/07/05 01:09:01;;;;;;;6.68;1.55;;;;;;;;;;4996019;28;21116;-68
2022/07/05 01:11:26;;;;;;;3.17;1.50;;;;;;;;;;5005624;28;20041;-67
2022/07/05 01:13:51;;;;;;;6.40;1.65;;;;;;;;;;4992918;28;20048;-67
2022/07/05 01:16:17;;;;;;;5.18;1.42;;;;;;;;;;5006182;28;20044;-67
2022/07/05 01:18:45;;;;;;;6.78;1.65;;;;;;;;;;4998235;28;20068;-67
2022/07/05 01:21:12;;;;;;;4.78;1.60;;;;;;;;;;4991394;28;20039;-67
2022/07/05 01:23:39;;;;;;;4.82;1.30;;;;;;;;;;4991880;28;20108;-67
2022/07/05 01:26:06;;;;;;;6.38;1.45;;;;;;;;;;4991688;28;20037;-67
2022/07/05 01:28:31;;;;;;;6.15;1.50;;;;;;;;;;4989889;28;20963;-68
2022/07/05 01:30:57;;;;;;;6.05;1.50;;;;;;;;;;4992528;28;20037;-67
2022/07/05 01:33:28;;;;;;;6.78;1.42;;;;;;;;;;5003835;28;20060;-67
2022/07/05 01:35:54;;;;;;;;;;;;;;;;;;4992332;28;20051;-66
2022/07/05 01:38:19;;;;;;;4.60;1.50;;;;;;;;;;4992347;28;19912;-68
2022/07/05 01:40:44;;;;;;;5.63;1.40;;;;;;;;;;5006071;28;20290;-67
2022/07/05 01:43:09;;;;;;;6.40;1.30;;;;;;;;;;4992269;28;20064;-66
2022/07/05 01:45:41;;;;;;;6.28;1.30;;;;;;;;;;5004109;28;20033;-66
2022/07/05 01:48:08;;;;;;;5.78;1.52;;;;;;;;;;4989339;28;20746;-67
2022/07/05 01:50:36;;;;;;;5.57;1.65;;;;;;;;;;4988088;28;20034;-67
2022/07/05 01:53:05;;;;;;;5.35;1.30;;;;;;;;;;4989611;28;20676;-67
2022/07/05 01:55:30;;;;;;;5.70;1.40;;;;;;;;;;4988082;28;20033;-67
2022/07/05 01:57:56;;;;;;;2.80;1.23;;;;;;;;;;4989554;28;20044;-66
2022/07/05 02:00:21;;;;;;;5.22;1.10;;;;;;;;;;4987997;28;20118;-66
2022/07/05 02:02:47;;;;;;;7.07;1.40;;;;;;;;;;4986739;28;20041;-66
2022/07/05 02:05:12;;;;;;;4.18;1.10;;;;;;;;;;4988657;28;20131;-67
2022/07/05 02:07:46;;;;;;;4.65;1.33;;;;;;;;;;4988464;28;20198;-67
2022/07/05 02:10:11;;;;;;;6.88;1.27;;;;;;;;;;4969793;28;22244;-67
2022/07/05 02:12:36;;;;;;;3.88;1.10;;;;;;;;;;4967958;28;20049;-67
2022/07/05 02:15:02;;;;;;;11.45;2.08;;;;;;;;;;4968900;28;20033;-67
2022/07/05 02:17:27;;;;;;;4.55;1.40;;;;;;;;;;4968321;28;20045;-67
2022/07/05 02:19:57;;;;;;;5.18;1.63;;;;;;;;;;4968580;28;20057;-67
2022/07/05 02:22:23;;;;;;;8.48;1.50;;;;;;;;;;4968214;28;21041;-66
2022/07/05 02:24:48;;;;;;;4.95;1.40;;;;;;;;;;4969755;28;20034;-66
2022/07/05 02:27:13;;;;;;;3.15;1.30;;;;;;;;;;4972177;28;20044;-67
2022/07/05 02:29:39;;;;;;;7.78;1.30;;;;;;;;;;4968922;28;20108;-67
2022/07/05 02:32:05;;;;;;;7.30;1.40;;;;;;;;;;4971554;28;20735;-66
2022/07/05 02:34:35;;;;;;;9.73;1.65;;;;;;;;;;4972295;28;20037;-66
2022/07/05 02:37:01;;;;;;;5.35;1.63;;;;;;;;;;4969812;28;20923;-67
2022/07/05 02:39:26;;;;;;;4.18;1.40;;;;;;;;;;4967725;28;20034;-67
2022/07/05 02:41:51;;;;;;;7.22;1.30;;;;;;;;;;4972314;28;20045;-66
2022/07/05 02:44:19;;;;;;;9.57;1.70;;;;;;;;;;4968746;28;20056;-66
2022/07/05 02:46:44;;;;;;;10.05;1.50;;;;;;;;;;4967951;28;20034;-67
2022/07/05 02:49:10;;;;;;;5.22;1.60;;;;;;;;;;4969082;28;20624;-67
2022/07/05 02:51:36;;;;;;;8.45;1.35;;;;;;;;;;4968151;28;20034;-66
2022/07/05 02:54:03;;;;;;;4.97;1.40;;;;;;;;;;4969349;28;20053;-68
2022/07/05 02:56:28;;;;;;;7.07;1.52;;;;;;;;;;4969602;28;20030;-68
2022/07/05 02:58:54;;;;;;;6.63;1.58;;;;;;;;;;4968806;28;20137;-67
2022/07/05 03:01:19;;;;;;;5.50;1.50;;;;;;;;;;4970065;28;20038;-68
2022/07/05 03:03:47;;;;;;;4.45;1.35;;;;;;;;;;4971015;28;20076;-68
2022/07/05 03:06:12;;;;;;;6.93;1.33;;;;;;;;;;4970892;28;20041;-67
2022/07/05 03:08:37;;;;;;;5.63;1.55;;;;;;;;;;4970470;28;20058;-67
2022/07/05 03:11:03;;;;;;;3.97;1.30;;;;;;;;;;4970681;28;20030;-67
2022/07/05 03:13:28;;;;;;;6.78;1.73;;;;;;;;;;4984866;28;20045;-67
2022/07/05 03:15:56;;;;;;;5.72;1.30;;;;;;;;;;4969552;28;20133;-68
2022/07/05 03:18:23;;;;;;;5.60;1.27;;;;;;;;;;4970305;28;20065;-67
2022/07/05 03:20:51;;;;;;;5.63;1.38;;;;;;;;;;4974036;28;20794;-67
2022/07/05 03:23:16;;;;;;;4.53;1.58;;;;;;;;;;4970686;28;20162;-68
2022/07/05 03:25:42;;;;;;;4.38;1.20;;;;;;;;;;4972643;28;20026;-68
2022/07/05 03:28:07;;;;;;;5.72;1.38;;;;;;;;;;4970447;28;20038;-67
2022/07/05 03:30:35;;;;;;;7.43;1.55;;;;;;;;;;4971224;28;20132;-67
2022/07/05 03:33:00;;;;;;;4.88;1.40;;;;;;;;;;4970004;28;20161;-67
2022/07/05 03:35:28;;;;;;;7.07;1.52;;;;;;;;;;4969986;28;20132;-66
2022/07/05 03:37:53;;;;;;;6.05;1.27;;;;;;;;;;4969522;28;20034;-66
2022/07/05 03:40:19;;;;;;;5.60;1.50;;;;;;;;;;4970709;28;20096;-66
2022/07/05 03:42:44;;;;;;;4.70;1.35;;;;;;;;;;4969582;28;20038;-69
2022/07/05 03:45:10;;;;;;;4.95;1.35;;;;;;;;;;4971169;28;20738;-67
2022/07/05 03:47:35;;;;;;;5.65;1.45;;;;;;;;;;4969078;28;20041;-66
2022/07/05 03:50:02;;;;;;;4.43;1.40;;;;;;;;;;4970406;28;20883;-67
2022/07/05 03:52:28;;;;;;;7.78;1.67;;;;;;;;;;4974725;28;20052;-66
2022/07/05 03:54:55;;;;;;;11.70;2.00;;;;;;;;;;4970094;28;20064;-67
2022/07/05 03:57:21;;;;;;;8.73;1.60;;;;;;;;;;4969962;28;20030;-66
2022/07/05 03:59:47;;;;;;;3.60;1.40;;;;;;;;;;4979162;28;20107;-68
2022/07/05 04:02:12;;;;;;;4.65;1.33;;;;;;;;;;4969191;28;20095;-69
2022/07/05 04:04:38;;;;;;;5.07;1.17;;;;;;;;;;4970241;28;20034;-68
2022/07/05 04:07:03;;;;;;;5.28;1.40;;;;;;;;;;4968835;28;20107;-66
2022/07/05 04:09:28;;;;;;;6.15;1.02;;;;;;;;;;4985223;28;20033;-67
2022/07/05 04:11:54;;;;;;;11.38;1.30;;;;;;;;;;4970302;28;20034;-67
2022/07/05 04:14:19;;;;;;;8.20;1.23;;;;;;;;;;4969373;28;20042;-66
2022/07/05 04:16:44;;;;;;;4.63;1.00;;;;;;;;;;4969499;28;20073;-67
2022/07/05 04:19:10;;;;;;;8.45;1.30;;;;;;;;;;4969753;28;20034;-66
2022/07/05 04:21:35;;;;;;;8.32;1.27;;;;;;;;;;4969958;28;20137;-66
2022/07/05 04:24:06;;;;;;;3.25;0.93;;;;;;;;;;4969466;28;20038;-66
2022/07/05 04:26:31;;;;;;;4.07;1.33;;;;;;;;;;4970065;28;20122;-67
2022/07/05 04:28:56;;;;;;;4.50;0.95;;;;;;;;;;4970008;28;20120;-67
2022/07/05 04:31:24;;;;;;;5.22;1.30;;;;;;;;;;4968699;28;20038;-67
2022/07/05 04:33:50;;;;;;;4.80;1.00;;;;;;;;;;4968299;28;20049;-65
2022/07/05 04:36:15;;;;;;;7.15;1.42;;;;;;;;;;4975697;28;21724;-67
2022/07/05 04:38:41;;;;;;;3.28;0.90;;;;;;;;;;4972919;28;20172;-66
2022/07/05 04:41:06;;;;;;;2.97;0.85;;;;;;;;;;4972805;28;20037;-66
2022/07/05 04:43:33;;;;;;;4.88;1.00;;;;;;;;;;4973268;28;20502;-67
2022/07/05 04:45:59;;;;;;;4.22;1.00;;;;;;;;;;4990917;28;20037;-66
2022/07/05 04:48:24;;;;;;;4.25;1.15;;;;;;;;;;4994039;28;20044;-66
2022/07/05 04:50:51;;;;;;;4.68;1.25;;;;;;;;;;5008062;28;20037;-67
2022/07/05 04:53:17;;;;;;;5.68;1.17;;;;;;;;;;5000118;28;20958;-67
2022/07/05 04:55:45;;;;;;;4.78;0.90;;;;;;;;;;4989991;28;20672;-66
2022/07/05 04:58:11;;;;;;;6.68;1.25;;;;;;;;;;4998929;28;20038;-65
2022/07/05 05:00:36;;;;;;;5.57;1.20;;;;;;;;;;4992528;28;20139;-66
2022/07/05 05:03:02;;;;;;;11.27;1.48;;;;;;;;;;4993216;28;20037;-66
2022/07/05 05:05:27;;;;;;;4.18;1.05;;;;;;;;;;4996838;28;20976;-67
2022/07/05 05:07:53;;;;;;;6.20;1.02;;;;;;;;;;4992000;28;20060;-66
2022/07/05 05:10:19;;;;;;;6.78;1.30;;;;;;;;;;4996231;28;20034;-65
2022/07/05 05:12:46;;;;;;;5.95;1.55;;;;;;;;;;4992573;28;20482;-66
2022/07/05 05:15:12;;;;;;;3.25;1.10;;;;;;;;;;4991993;28;20561;-66
2022/07/05 05:17:38;;;;;;;5.07;1.10;;;;;;;;;;4996134;28;20127;-67
2022/07/05 05:20:04;;;;;;;5.50;1.13;;;;;;;;;;4992185;28;20037;-66
2022/07/05 05:22:30;;;;;;;6.28;1.10;;;;;;;;;;4992008;28;20042;-67
2022/07/05 05:24:55;;;;;;;7.38;1.40;;;;;;;;;;4988684;28;20080;-67
2022/07/05 05:27:21;;;;;;;9.27;1.42;;;;;;;;;;4990465;28;21824;-67
2022/07/05 05:29:46;;;;;;;8.27;1.40;;;;;;;;;;4994228;28;20055;-67
2022/07/05 05:32:12;;;;;;;4.18;1.20;;;;;;;;;;4992718;28;20692;-67
2022/07/05 05:34:37;;;;;;;5.32;1.23;;;;;;;;;;4990495;28;20143;-66
2022/07/05 05:37:02;;;;;;;5.32;1.30;;;;;;;;;;4991873;28;20029;-66
2022/07/05 05:39:28;;;;;;;5.40;1.10;;;;;;;;;;4985890;28;20168;-66
2022/07/05 05:41:53;;;;;;;4.57;1.27;;;;;;;;;;4992960;28;20033;-66
2022/07/05 05:44:19;;;;;;;8.27;1.40;;;;;;;;;;4991172;28;20917;-65
2022/07/05 05:46:46;;;;;;;6.82;1.20;;;;;;;;;;4989234;28;20033;-67
2022/07/05 05:49:12;;;;;;;7.72;1.17;;;;;;;;;;4998890;28;20152;-66
2022/07/05 05:51:37;;;;;;;3.92;1.30;;;;;;;;;;4991665;28;21676;-67
2022/07/05 05:54:07;;;;;;;9.10;1.15;;;;;;;;;;4990866;28;20044;-65
2022/07/05 05:56:32;;;;;;;8.27;1.40;;;;;;;;;;4991270;28;20044;-67
2022/07/05 05:58:57;;;;;;;5.55;1.27;;;;;;;;;;4991537;28;20037;-66
2022/07/05 06:01:25;;;;;;;8.95;1.58;;;;;;;;;;4991501;28;20061;-67
2022/07/05 06:03:51;;;;;;;6.82;1.35;;;;;;;;;;4971505;28;20562;-66
2022/07/05 06:06:16;;;;;;;6.53;1.20;;;;;;;;;;4979528;28;20029;-67
2022/07/05 06:08:42;;;;;;;8.52;1.30;;;;;;;;;;4990962;28;20037;-66
2022/07/05 06:11:13;;;;;;;5.60;1.13;;;;;;;;;;4990833;28;20033;-66
2022/07/05 06:13:38;;;;;;;6.38;1.65;;;;;;;;;;4990266;28;20037;-66
2022/07/05 06:16:05;;;;;;;4.10;0.90;;;;;;;;;;4991346;28;20056;-66
2022/07/05 06:18:33;;;;;;;6.57;1.33;;;;;;;;;;4991133;28;20913;-67
2022/07/05 06:20:58;;;;;;;6.30;1.40;;;;;;;;;;4989535;28;20493;-67
2022/07/05 06:23:24;;;;;;;7.28;1.33;;;;;;;;;;4991392;28;20065;-66
2022/07/05 06:25:49;;;;;;;9.07;1.30;;;;;;;;;;5004714;28;20036;-66
2022/07/05 06:28:17;;;;;;;4.93;1.45;;;;;;;;;;4991374;28;20108;-66
2022/07/05 06:30:42;;;;;;;9.20;1.30;;;;;;;;;;4988217;28;20060;-66
2022/07/05 06:33:08;;;;;;;5.68;0.90;;;;;;;;;;4987112;28;20135;-66
2022/07/05 06:35:38;;;;;;;3.63;1.02;;;;;;;;;;4986002;28;20429;-66
2022/07/05 06:38:04;;;;;;;3.50;0.90;;;;;;;;;;4984302;28;20044;-65
2022/07/05 06:40:36;;;;;;;5.40;1.00;;;;;;;;;;4972897;28;20095;-67
2022/07/05 06:43:03;;;;;;;4.95;1.10;;;;;;;;;;4965911;28;20616;-66
2022/07/05 06:45:29;;;;;;;6.43;1.10;;;;;;;;;;4973813;28;20047;-66
2022/07/05 06:47:58;;;;;;;6.57;1.10;;;;;;;;;;4987178;28;20360;-68
2022/07/05 06:50:29;;;;;;;4.60;1.20;;;;;;;;;;4986349;28;20171;-66
2022/07/05 06:52:55;;;;;;;7.15;1.10;;;;;;;;;;4986315;28;20052;-65
2022/07/05 06:55:22;;;;;;;5.88;1.17;;;;;;;;;;4987117;28;20033;-66
2022/07/05 06:57:55;;;;;;;3.80;0.95;;;;;;;;;;4986421;28;20045;-65
2022/07/05 07:00:21;;;;;;;4.93;1.30;;;;;;;;;;4984917;28;20132;-66
2022/07/05 07:02:46;;;;;;;5.57;1.30;;;;;;;;;;4987462;28;20029;-65
2022/07/05 07:05:11;;;;;;;7.65;1.20;;;;;;;;;;4985833;28;20140;-66
2022/07/05 07:10:23;;;;;;;6.10;1.00;;;;;;;;;;4987342;28;20044;-65
2022/07/05 07:12:48;;;;;;;5.40;1.15;;;;;;;;;;4991890;28;20241;-66
2022/07/05 07:15:13;;;;;;;5.55;1.02;;;;;;;;;;4986902;28;20033;-66
2022/07/05 07:17:39;;;;;;;6.25;1.27;;;;;;;;;;4985655;28;20117;-66
2022/07/05 07:20:04;;;;;;;4.47;0.93;;;;;;;;;;5000114;28;20129;-67
2022/07/05 07:22:30;;;;;;;5.88;1.00;;;;;;;;;;4987252;28;20566;-67
2022/07/05 07:24:57;;;;;;;6.10;0.90;;;;;;;;;;4988581;28;20528;-67
2022/07/05 07:27:23;;;;;;;9.93;1.20;;;;;;;;;;4989216;28;20032;-75
2022/07/05 07:29:48;;;;;;;3.30;1.00;;;;;;;;;;5013198;28;20034;-74
2022/07/05 07:32:18;;;;;;;3.88;1.00;;;;;;;;;;5016990;28;20537;-73
2022/07/05 07:34:46;;;;;;;4.55;1.00;;;;;;;;;;5011097;28;20040;-74
2022/07/05 07:37:13;;;;;;;7.32;1.23;;;;;;;;;;5022286;28;20024;-74
2022/07/05 07:39:39;;;;;;;7.55;1.23;;;;;;;;;;5028362;28;20107;-73
2022/07/05 07:42:05;;;;;;;6.22;1.00;;;;;;;;;;4999875;28;20116;-73
2022/07/05 07:44:30;;;;;;;3.75;0.80;;;;;;;;;;5013630;28;20056;-74
2022/07/05 07:46:56;;;;;;;6.50;1.27;;;;;;;;;;5017897;28;20037;-73
2022/07/05 07:49:24;;;;;;;4.15;1.10;;;;;;;;;;5015300;28;20137;-73
2022/07/05 07:51:50;;;;;;;3.80;1.00;;;;;;;;;;4991481;28;20041;-73
2022/07/05 07:54:15;;;;;;;5.68;1.00;;;;;;;;;;5008376;28;20656;-75
2022/07/05 07:56:40;;;;;;;4.38;0.95;;;;;;;;;;5007776;28;20123;-73
2022/07/05 07:59:06;;;;;;;6.63;1.38;;;;;;;;;;5014814;28;20045;-74
2022/07/05 08:01:31;;;;;;;7.50;1.40;;;;;;;;;;5017705;28;20150;-73
2022/07/05 08:03:57;;;;;;;4.43;1.10;;;;;;;;;;5012833;28;20256;-75
2022/07/05 08:06:22;;;;;;;7.72;1.10;;;;;;;;;;5004114;28;20077;-73
2022/07/05 08:08:48;;;;;;;5.10;1.02;;;;;;;;;;5011328;28;20037;-73
2022/07/05 08:11:13;;;;;;;5.70;1.20;;;;;;;;;;5023167;28;20477;-74
2022/07/05 08:13:40;;;;;;;5.80;1.20;;;;;;;;;;5032015;28;20043;-73
2022/07/05 08:16:06;;;;;;;7.07;1.17;;;;;;;;;;5014440;28;20033;-74
2022/07/05 08:21:31;;;;;;;3.92;1.25;;;;;;;;;;5025159;28;20094;-72
2022/07/05 08:23:59;;;;;;;6.10;1.30;;;;;;;;;;5022961;28;20057;-73
2022/07/05 08:26:25;;;;;;;3.65;1.30;;;;;;;;;;5015049;28;20064;-74
2022/07/05 08:28:52;;;;;;;5.72;1.30;;;;;;;;;;5013293;28;20034;-72
2022/07/05 08:31:18;;;;;;;6.93;1.20;;;;;;;;;;5008750;28;20781;-73
2022/07/05 08:33:46;;;;;;;6.03;1.20;;;;;;;;;;5019529;28;21947;-73
2022/07/05 08:36:16;;;;;;;4.25;1.10;;;;;;;;;;5002733;28;20036;-73
2022/07/05 08:38:41;;;;;;;7.28;1.23;;;;;;;;;;5008652;28;20072;-73
2022/07/05 08:41:08;;;;;;;5.40;1.10;;;;;;;;;;5006584;28;20037;-73
2022/07/05 08:43:34;;;;;;;4.45;1.00;;;;;;;;;;5016929;28;20102;-73
2022/07/05 08:46:00;;;;;;;5.10;1.27;;;;;;;;;;5013897;28;20034;-72
2022/07/05 08:48:27;;;;;;;5.25;1.35;;;;;;;;;;5013131;28;20032;-71
2022/07/05 08:50:54;;;;;;;7.70;1.10;;;;;;;;;;5016349;28;20029;-73
2022/07/05 08:53:19;;;;;;;11.55;1.30;;;;;;;;;;5016675;28;20468;-74
2022/07/05 08:55:45;;;;;;;5.72;1.00;;;;;;;;;;5010684;28;20061;-73
2022/07/05 08:58:11;;;;;;;4.38;1.20;;;;;;;;;;5021685;28;20037;-74
2022/07/05 09:00:37;;;;;;;4.82;1.08;;;;;;;;;;5017506;28;20103;-72
2022/07/05 09:03:03;;;;;;;4.80;1.05;;;;;;;;;;5033232;28;20040;-72
2022/07/05 09:05:29;;;;;;;6.22;1.08;;;;;;;;;;5019839;28;20037;-73
2022/07/05 09:08:00;;;;;;;7.78;1.27;;;;;;;;;;5024795;28;20039;-73
2022/07/05 09:10:26;;;;;;;6.95;1.00;;;;;;;;;;5021511;28;20116;-72
2022/07/05 09:12:52;;;;;;;6.45;0.90;;;;;;;;;;5019779;28;20296;-72
2022/07/05 09:15:17;;;;;;;6.15;1.25;;;;;;;;;;5020456;28;20091;-71
2022/07/05 09:17:45;;;;;;;19.40;2.00;;;;;;;;;;5025199;28;20466;-71
2022/07/05 09:20:12;;;;;;;3.00;1.00;;;;;;;;;;5019668;28;20053;-73
2022/07/05 09:22:44;;;;;;;6.35;1.38;;;;;;;;;;5028840;28;20063;-71
2022/07/05 09:25:28;;;;;;;5.20;1.00;;;;;;;;;;5011878;28;20606;-65
2022/07/05 09:28:00;;;;;;;8.45;1.00;;;;;;;;;;4993781;28;20079;-66
2022/07/05 09:30:28;;;;;;;5.50;1.10;;;;;;;;;;4992961;28;20746;-68
2022/07/05 09:33:03;;;;;;;5.75;1.25;;;;;;;;;;4991222;28;23006;-65
2022/07/05 09:35:31;;;;;;;5.18;1.23;;;;;;;;;;4990385;28;20037;-65
2022/07/05 09:38:02;;;;;;;5.05;1.27;;;;;;;;;;4993436;28;20231;-65
2022/07/05 09:40:28;;;;;;;7.45;1.42;;;;;;;;;;4993354;28;20037;-66
2022/07/05 09:43:09;;;;;;;5.45;1.10;;;;;;;;;;4992787;28;20117;-67
2022/07/05 09:45:37;;;;;;;7.40;1.10;;;;;;;;;;4985918;28;21945;-67
2022/07/05 09:48:03;;;;;;;8.13;1.25;;;;;;;;;;4989976;28;20039;-69
2022/07/05 09:50:35;;;;;;;4.50;1.00;;;;;;;;;;4993131;28;20041;-68
2022/07/05 09:53:01;;;;;;;6.65;1.10;;;;;;;;;;4977223;28;20042;-69
2022/07/05 09:55:26;;;;;;;4.95;0.85;;;;;;;;;;4972576;28;20612;-69
2022/07/05 09:57:53;;;;;;;5.47;0.77;;;;;;;;;;4973159;28;20151;-69
2022/07/05 10:00:20;;;;;;;5.53;1.10;;;;;;;;;;4972189;28;20080;-69
2022/07/05 10:02:51;;;;;;;4.60;1.00;;;;;;;;;;4970336;28;20042;-69
2022/07/05 10:05:21;;;;;;;5.40;1.00;;;;;;;;;;4977669;28;20059;-69
2022/07/05 10:07:48;;;;;;;6.78;1.13;;;;;;;;;;4971898;28;20876;-67
2022/07/05 10:10:14;;;;;;;7.32;1.27;;;;;;;;;;4973188;28;20038;-69
2022/07/05 10:12:41;;;;;;;6.70;1.15;;;;;;;;;;4972271;28;20029;-68
2022/07/05 10:15:08;;;;;;;8.18;1.00;;;;;;;;;;4973087;28;20115;-66
2022/07/05 10:17:38;;;;;;;7.28;1.20;;;;;;;;;;4978329;28;20060;-71
2022/07/05 10:20:11;;;;;;;4.10;1.20;;;;;;;;;;4977883;28;20120;-72
2022/07/05 10:22:36;;;;;;;6.30;1.00;;;;;;;;;;4980868;28;20029;-72
2022/07/05 10:25:05;;;;;;;7.03;1.00;;;;;;;;;;4996643;28;20704;-71
2022/07/05 10:27:32;;;;;;;5.13;0.90;;;;;;;;;;4989728;28;20031;-72
2022/07/05 10:29:57;;;;;;;7.95;1.38;;;;;;;;;;4993228;28;20029;-73
2022/07/05 10:32:25;;;;;;;6.78;1.30;;;;;;;;;;4992810;28;20044;-73
2022/07/05 10:34:51;;;;;;;5.65;0.90;;;;;;;;;;4993419;28;20037;-71
2022/07/05 10:37:17;;;;;;;5.82;1.15;;;;;;;;;;5000222;28;21008;-71
2022/07/05 10:39:43;;;;;;;6.00;1.20;;;;;;;;;;5007129;28;20036;-71
2022/07/05 10:42:09;;;;;;;8.95;1.20;;;;;;;;;;4996602;28;20057;-71
2022/07/05 10:44:34;;;;;;;6.03;1.23;;;;;;;;;;4999861;28;20052;-70
2022/07/05 10:47:12;;;;;;;2.83;0.90;;;;;;;;;;4992984;28;20030;-72
2022/07/05 10:49:38;;;;;;;6.65;1.00;;;;;;;;;;4968109;28;20049;-69
2022/07/05 10:52:04;;;;;;;5.68;1.00;;;;;;;;;;4971836;28;20042;-69
2022/07/05 10:54:29;;;;;;;7.25;1.20;;;;;;;;;;4970930;28;20091;-70
2022/07/05 10:57:14;;;;;;;5.18;1.30;;;;;;;;;;4972519;28;20224;-70
2022/07/05 10:59:58;;;;;;;4.82;1.20;;;;;;;;;;4970596;28;20034;-69
2022/07/05 11:02:24;;;;;;;5.93;1.00;;;;;;;;;;4971950;28;20038;-69
2022/07/05 11:04:54;;;;;;;4.35;1.10;;;;;;;;;;4971326;28;20273;-71
2022/07/05 11:07:39;;;;;;;2.50;0.65;;;;;;;;;;4971692;28;20038;-71
2022/07/05 11:10:06;;;;;;;4.75;1.20;;;;;;;;;;4970565;28;20038;-67
2022/07/05 11:12:37;;;;;;;4.88;1.23;;;;;;;;;;4968613;28;20038;-70
2022/07/05 11:15:04;;;;;;;4.70;1.00;;;;;;;;;;4970976;28;20838;-73
2022/07/05 11:17:34;;;;;;;7.65;1.23;;;;;;;;;;4975243;28;20763;-70
2022/07/05 11:20:02;;;;;;;5.93;1.10;;;;;;;;;;4968833;28;20494;-71
2022/07/05 11:22:27;;;;;;;5.07;1.00;;;;;;;;;;4968473;28;20319;-70
2022/07/05 11:24:59;;;;;;;4.85;1.00;;;;;;;;;;4967882;28;20062;-69
2022/07/05 11:27:27;;;;;;;7.00;1.10;;;;;;;;;;4968665;28;20038;-70
2022/07/05 11:29:53;;;;;;;3.67;1.20;;;;;;;;;;4971137;28;20750;-70
2022/07/05 11:32:22;;;;;;;5.47;1.30;;;;;;;;;;4981594;28;20036;-70
2022/07/05 11:34:48;;;;;;;6.13;1.15;;;;;;;;;;4967241;28;20077;-70
2022/07/05 11:37:13;;;;;;;5.78;1.33;;;;;;;;;;4969695;28;20113;-70
2022/07/05 11:39:38;;;;;;;5.20;1.17;;;;;;;;;;4968426;28;20138;-72
2022/07/05 11:42:04;;;;;;;7.18;1.20;;;;;;;;;;4968685;28;20759;-70
2022/07/05 11:44:32;;;;;;;9.00;1.20;;;;;;;;;;4973491;28;20045;-69
2022/07/05 11:47:01;;;;;;;5.60;1.00;;;;;;;;;;4970097;28;20041;-69
2022/07/05 11:49:27;;;;;;;9.63;1.55;;;;;;;;;;4968470;28;20042;-70
2022/07/05 11:51:53;;;;;;;6.57;1.13;;;;;;;;;;4969845;28;20820;-73
2022/07/05 11:54:24;;;;;;;6.10;1.35;;;;;;;;;;4970074;28;20596;-70
2022/07/05 11:56:50;;;;;;;5.57;1.40;;;;;;;;;;4971148;28;20162;-70
2022/07/05 11:59:22;;;;;;;4.78;1.13;;;;;;;;;;4969639;28;20080;-72
2022/07/05 12:01:50;;;;;;;4.30;1.20;;;;;;;;;;4967829;28;20128;-71
2022/07/05 12:04:21;;;;;;;5.85;1.20;;;;;;;;;;4976977;28;20038;-69
2022/07/05 12:06:48;;;;;;;5.35;1.20;;;;;;;;;;4969323;28;21246;-70
2022/07/05 12:09:14;;;;;;;8.02;1.42;;;;;;;;;;4970724;28;20084;-70
2022/07/05 12:14:23;;;;;;;5.75;1.20;;;;;;;;;;4972868;28;20206;-71
2022/07/05 12:16:50;;;;;;;4.22;1.08;;;;;;;;;;4966123;28;20034;-70
2022/07/05 12:19:25;;;;;;;6.32;1.20;;;;;;;;;;4974069;28;20853;-71
2022/07/05 12:21:54;;;;;;;7.75;1.50;;;;;;;;;;4968955;28;20045;-70
2022/07/05 12:24:22;;;;;;;6.28;1.33;;;;;;;;;;4996810;28;20030;-72
2022/07/05 12:26:49;;;;;;;8.30;1.05;;;;;;;;;;5013527;28;20202;-69
2022/07/05 12:29:16;;;;;;;6.03;1.27;;;;;;;;;;4998805;28;20068;-72
2022/07/05 12:31:57;;;;;;;8.93;1.50;;;;;;;;;;4999176;28;20037;-71
2022/07/05 12:34:22;;;;;;;8.52;1.52;;;;;;;;;;4993862;28;20044;-73
2022/07/05 12:36:48;;;;;;;7.80;1.40;;;;;;;;;;4996666;28;20127;-75
2022/07/05 12:39:16;;;;;;;9.82;1.13;;;;;;;;;;4994414;28;20061;-73
2022/07/05 12:41:42;;;;;;;10.15;1.50;;;;;;;;;;4989815;28;20042;-74
2022/07/05 12:44:08;;;;;;;7.30;1.77;;;;;;;;;;4993586;28;20046;-72
2022/07/05 12:46:39;;;;;;;8.65;1.63;;;;;;;;;;4989604;28;20064;-74
2022/07/05 12:49:05;;;;;;;9.20;1.45;;;;;;;;;;4999303;28;20855;-73
2022/07/05 12:51:35;;;;;;;12.30;1.95;;;;;;;;;;5001322;28;20036;-74
2022/07/05 12:59:34;;;;;;;7.82;1.63;;;;;;;;;;4992810;28;20040;-71
2022/07/05 13:01:59;;;;;;;7.00;1.65;;;;;;;;;;5000280;28;20029;-70
2022/07/05 13:04:25;;;;;;;11.70;1.95;;;;;;;;;;5006849;28;20041;-72
2022/07/05 13:06:56;;;;;;;10.32;1.83;;;;;;;;;;4993915;28;20029;-72
2022/07/05 13:09:28;;;;;;;9.30;1.70;;;;;;;;;;4993339;28;20138;-69
2022/07/05 13:12:09;;;;;;;11.98;2.20;;;;;;;;;;4993093;28;20033;-69
2022/07/05 13:14:40;;;;;;;17.63;2.42;;;;;;;;;;4983449;28;20042;-73
2022/07/05 13:17:05;;;;;;;16.50;2.42;;;;;;;;;;5002134;28;20087;-73
2022/07/05 13:19:31;;;;;;;18.65;2.63;;;;;;;;;;4992984;28;20072;-72
2022/07/05 13:21:57;;;;;;;18.02;2.95;;;;;;;;;;4992724;28;20748;-71
2022/07/05 13:24:22;;;;;;;16.63;2.53;;;;;;;;;;4991190;28;20038;-68
2022/07/05 13:26:48;;;;;;;19.45;2.88;;;;;;;;;;4990577;28;20053;-68
2022/07/05 13:29:16;;;;;;;18.60;3.00;;;;;;;;;;5007805;28;20048;-67
2022/07/05 13:31:41;;;;;;;12.38;2.17;;;;;;;;;;4993419;28;20087;-68
2022/07/05 13:34:06;;;;;;;25.02;2.95;;;;;;;;;;4992846;28;20041;-67
2022/07/05 13:36:32;;;;;;;21.02;2.60;;;;;;;;;;4991916;28;20037;-66
2022/07/05 13:39:00;;;;;;;13.55;2.20;;;;;;;;;;4995166;28;20737;-68
2022/07/05 13:41:28;;;;;;;8.05;1.60;;;;;;;;;;4992686;28;20138;-68
2022/07/05 13:43:53;;;;;;;13.25;2.17;;;;;;;;;;4991675;28;20881;-66
2022/07/05 13:46:19;;;;;;;10.15;2.10;;;;;;;;;;4993436;28;20207;-67
2022/07/05 13:48:44;;;;;;;16.60;2.25;;;;;;;;;;4992571;28;20033;-66
2022/07/05 13:51:10;;;;;;;8.05;1.30;;;;;;;;;;4989554;28;20105;-66
2022/07/05 13:53:36;;;;;;;6.15;1.50;;;;;;;;;;4993095;28;20270;-68
2022/07/05 13:56:02;;;;;;;7.10;1.50;;;;;;;;;;4992425;28;20159;-68
2022/07/05 13:58:27;;;;;;;7.63;1.60;;;;;;;;;;4992492;28;20045;-68
2022/07/05 14:00:53;;;;;;;6.28;1.30;;;;;;;;;;4998055;28;20045;-67
2022/07/05 14:03:18;;;;;;;7.35;1.65;;;;;;;;;;4992884;28;20076;-68
2022/07/05 14:05:44;;;;;;;8.93;1.40;;;;;;;;;;4989090;28;20044;-67
2022/07/05 14:08:13;;;;;;;5.07;1.30;;;;;;;;;;5001086;28;20057;-67
2022/07/05 14:10:39;;;;;;;6.75;1.48;;;;;;;;;;4991726;28;20033;-68
2022/07/05 14:13:05;;;;;;;8.63;1.63;;;;;;;;;;4992425;28;22421;-66
2022/07/05 14:15:34;;;;;;;8.13;1.40;;;;;;;;;;5000926;28;20091;-66
2022/07/05 14:18:00;;;;;;;11.50;1.40;;;;;;;;;;4992649;28;20136;-67
2022/07/05 14:20:25;;;;;;;6.97;1.10;;;;;;;;;;4997978;28;20124;-67
2022/07/05 14:22:53;;;;;;;9.18;1.10;;;;;;;;;;4987657;28;20324;-67
2022/07/05 14:25:18;;;;;;;5.45;1.00;;;;;;;;;;4991127;28;20044;-70
2022/07/05 14:27:44;;;;;;;7.47;1.20;;;;;;;;;;4990097;28;20088;-72
2022/07/05 14:30:10;;;;;;;4.90;1.10;;;;;;;;;;5005536;28;20084;-69
2022/07/05 14:32:36;;;;;;;6.90;1.33;;;;;;;;;;4989263;28;20160;-72
2022/07/05 14:35:02;;;;;;;8.82;1.38;;;;;;;;;;4990738;28;20037;-70
2022/07/05 14:37:28;;;;;;;10.85;1.50;;;;;;;;;;4989995;28;20406;-74
2022/07/05 14:39:53;;;;;;;14.95;1.92;;;;;;;;;;5005779;28;20061;-69
2022/07/05 14:42:18;;;;;;;7.53;1.13;;;;;;;;;;4987035;28;20451;-67
2022/07/05 14:44:46;;;;;;;6.00;1.20;;;;;;;;;;4953865;28;20029;-68
2022/07/05 14:47:11;;;;;;;12.98;1.48;;;;;;;;;;4975033;28;20761;-67
2022/07/05 14:49:36;;;;;;;7.00;1.33;;;;;;;;;;4969334;28;20041;-66
2022/07/05 14:52:02;;;;;;;10.00;1.70;;;;;;;;;;4973608;28;20151;-68
2022/07/05 14:54:27;;;;;;;12.05;1.60;;;;;;;;;;4970691;28;20056;-67